KGSP/GSP METAR and TAF weather

Enter ICAO airport designator
Station Type Date Time Source
KGSP METAR 2021/09/23 16:53 UTC NOAA

KGSP 231653Z VRB06KT 10SM CLR 21/07 A3000 RMK AO2 SLP152 T02060072


Station Type Date Time Source
KGSP Decoded METAR 2021/09/23 16:53 UTC NOAA

GREER GREENVILLE SPARTBURG, SC, United States (KGSP) 34-53N 82-13W 286M
Sep 23, 2021 - 12:53 PM EDT / 2021.09.23 1653 UTC
Wind: Variable at 7 MPH (6 KT):0
Visibility: 10 mile(s):0
Sky conditions: clear
Temperature: 69.1 F (20.6 C)
Dew Point: 45.0 F (7.2 C)
Relative Humidity: 41%
Pressure (altimeter): 30 in. Hg (1015 hPa)
ob: KGSP 231653Z VRB06KT 10SM CLR 21/07 A3000 RMK AO2 SLP152 T02060072
cycle: 17

Station Type Date Time Source
KGSP TAF 2021/09/23 12:28 UTC NOAA

TAF KGSP 231125Z 2312/2412 34007KT P6SM SKC
FM240200 01003KT P6SM SKC

Example: see airport list